createdAt,value
2018-04-16T00:00:38.679Z,106.03
2018-04-16T00:03:05.146Z,110.93
2018-04-16T00:05:33.259Z,127.37
2018-04-16T00:10:33.163Z,119.77
2018-04-16T00:13:00.198Z,107.00
2018-04-16T00:15:28.437Z,103.70
2018-04-16T00:17:55.701Z,108.33
2018-04-16T00:20:22.100Z,113.60
2018-04-16T00:22:48.980Z,122.87
2018-04-16T00:25:17.051Z,121.27
2018-04-16T00:27:43.515Z,113.47
2018-04-16T00:30:11.207Z,119.60
2018-04-16T00:32:52.834Z,103.17
2018-04-16T00:35:28.098Z,110.50
2018-04-16T00:38:00.479Z,108.30
2018-04-16T00:40:33.077Z,123.23
2018-04-16T00:43:05.934Z,114.57
2018-04-16T00:45:39.667Z,121.37
2018-04-16T00:48:12.277Z,124.10
2018-04-16T00:50:44.700Z,99.23
2018-04-16T00:53:17.505Z,121.47
2018-04-16T00:55:51.014Z,103.77
2018-04-16T00:58:23.531Z,128.63
2018-04-16T01:00:56.046Z,100.17
2018-04-16T01:03:28.592Z,105.37
2018-04-16T01:06:01.445Z,107.37
2018-04-16T01:08:35.790Z,98.80
2018-04-16T01:11:10.066Z,106.90
2018-04-16T01:13:45.176Z,109.70
2018-04-16T01:16:17.710Z,108.77
2018-04-16T01:18:50.103Z,110.50
2018-04-16T01:21:23.237Z,115.73
2018-04-16T01:23:56.661Z,113.17
2018-04-16T01:26:29.125Z,111.47
2018-04-16T01:29:01.529Z,118.43
2018-04-16T01:31:34.508Z,124.07
2018-04-16T01:34:08.736Z,104.97
2018-04-16T01:36:43.533Z,132.30
2018-04-16T01:39:16.053Z,122.07
2018-04-16T01:41:48.410Z,134.00
2018-04-16T01:44:21.119Z,124.63
2018-04-16T01:46:54.615Z,117.37
2018-04-16T01:49:27.857Z,120.97
2018-04-16T01:52:01.147Z,117.83
2018-04-16T01:54:34.423Z,124.17
2018-04-16T01:57:09.363Z,132.07
2018-04-16T01:59:41.929Z,138.97
2018-04-16T02:02:16.582Z,130.17
2018-04-16T02:04:52.088Z,120.87
2018-04-16T02:07:24.747Z,132.63
2018-04-16T02:09:58.923Z,127.07
2018-04-16T02:12:31.339Z,133.07
2018-04-16T02:15:06.453Z,114.43
2018-04-16T02:17:38.967Z,138.30
2018-04-16T02:20:12.307Z,125.70
2018-04-16T02:22:44.849Z,144.00
2018-04-16T02:25:18.964Z,143.70
2018-04-16T02:28:06.687Z,140.83
2018-04-16T02:30:39.650Z,142.17
2018-04-16T02:33:12.181Z,113.93
2018-04-16T02:35:45.099Z,116.03
2018-04-16T02:38:18.002Z,113.10
2018-04-16T02:40:51.294Z,120.57
2018-04-16T02:43:24.446Z,117.33
2018-04-16T02:45:57.345Z,117.13
2018-04-16T02:48:29.946Z,128.20
2018-04-16T02:51:03.040Z,125.87
2018-04-16T02:53:35.306Z,129.27
2018-04-16T02:56:09.041Z,130.50
2018-04-16T03:01:42.127Z,119.87
2018-04-16T03:04:16.048Z,128.47
2018-04-16T03:06:50.043Z,124.90
2018-04-16T03:09:23.192Z,119.90
2018-04-16T03:11:56.600Z,115.57
2018-04-16T03:14:29.141Z,134.07
2018-04-16T03:17:01.755Z,129.97
2018-04-16T03:19:35.012Z,124.43
2018-04-16T03:22:09.095Z,129.60
2018-04-16T03:24:42.784Z,141.13
2018-04-16T03:27:16.904Z,143.77
2018-04-16T03:29:49.376Z,136.47
2018-04-16T03:35:22.654Z,145.37
2018-04-16T03:37:55.946Z,145.03
2018-04-16T03:40:28.522Z,126.13
2018-04-16T03:43:00.851Z,146.03
2018-04-16T03:48:35.071Z,134.03
2018-04-16T03:51:19.386Z,156.83
2018-04-16T03:53:48.682Z,132.47
2018-04-16T03:56:15.980Z,138.10
2018-04-16T03:58:42.506Z,131.03
2018-04-16T04:01:10.476Z,133.40
2018-04-16T04:03:37.614Z,147.67
2018-04-16T04:06:04.083Z,134.53
2018-04-16T04:08:30.624Z,134.17
2018-04-16T04:10:57.214Z,118.37
2018-04-16T04:13:23.933Z,125.23
2018-04-16T04:15:50.988Z,119.57
2018-04-16T04:18:17.682Z,129.00
2018-04-16T04:20:47.077Z,132.13
2018-04-16T04:23:26.019Z,137.67
2018-04-16T04:26:05.846Z,116.13
2018-04-16T04:28:44.281Z,126.90
2018-04-16T04:31:10.673Z,120.47
2018-04-16T04:33:37.089Z,107.17
2018-04-16T04:36:04.057Z,116.47
2018-04-16T04:38:30.760Z,121.33
2018-04-16T04:40:59.370Z,106.20
2018-04-16T04:43:25.919Z,104.33
2018-04-16T04:45:52.417Z,110.47
2018-04-16T04:48:20.031Z,115.77
2018-04-16T04:50:49.641Z,138.37
2018-04-16T04:53:17.166Z,113.03
2018-04-16T04:55:45.556Z,112.20
2018-04-16T04:58:12.385Z,100.43
2018-04-16T05:00:38.768Z,115.47
2018-04-16T05:03:05.409Z,105.07
2018-04-16T05:05:32.527Z,101.43
2018-04-16T05:07:59.860Z,104.77
2018-04-16T05:10:26.311Z,102.03
2018-04-16T05:12:54.464Z,104.43
2018-04-16T05:15:21.577Z,96.53
2018-04-16T05:17:48.239Z,100.93
2018-04-16T05:20:15.016Z,127.17
2018-04-16T05:22:42.079Z,109.00
2018-04-16T05:25:08.931Z,91.37
2018-04-16T05:27:35.643Z,86.27
2018-04-16T05:30:03.171Z,96.70
2018-04-16T05:32:30.064Z,104.87
2018-04-16T05:34:57.444Z,95.77
2018-04-16T05:37:25.030Z,105.30
2018-04-16T05:39:53.251Z,94.37
2018-04-16T05:42:21.293Z,95.70
2018-04-16T05:44:48.264Z,103.47
2018-04-16T05:47:16.434Z,98.40
2018-04-16T05:49:44.337Z,98.63
2018-04-16T05:52:11.848Z,87.53
2018-04-16T05:54:39.292Z,102.00
2018-04-16T05:57:07.053Z,98.00
2018-04-16T05:59:33.827Z,93.20
2018-04-16T06:02:00.754Z,105.10
2018-04-16T06:04:27.230Z,97.87
2018-04-16T06:06:54.446Z,89.37
2018-04-16T06:09:21.597Z,98.57
2018-04-16T06:11:48.327Z,103.73
2018-04-16T06:14:14.903Z,93.67
2018-04-16T06:16:43.200Z,96.47
2018-04-16T06:19:09.863Z,94.10
2018-04-16T06:21:38.000Z,86.70
2018-04-16T06:24:05.155Z,99.93
2018-04-16T06:26:31.692Z,78.60
2018-04-16T06:28:58.593Z,84.80
2018-04-16T06:31:26.283Z,95.30
2018-04-16T06:33:53.473Z,89.17
2018-04-16T06:36:20.273Z,91.80
2018-04-16T06:38:47.544Z,86.87
2018-04-16T06:41:15.953Z,91.30
2018-04-16T06:43:43.755Z,106.77
2018-04-16T06:46:10.292Z,75.90
2018-04-16T06:48:36.778Z,79.80
2018-04-16T06:51:03.318Z,89.53
2018-04-16T06:53:31.433Z,97.07
2018-04-16T06:55:57.849Z,85.30
2018-04-16T06:58:25.435Z,82.63
2018-04-16T07:00:52.227Z,82.00
2018-04-16T07:03:18.759Z,91.47
2018-04-16T07:05:45.401Z,83.70
2018-04-16T07:08:13.514Z,82.80
2018-04-16T07:10:41.862Z,91.07
2018-04-16T07:13:08.624Z,74.93
2018-04-16T07:15:34.984Z,77.30
2018-04-16T07:18:02.190Z,90.03
2018-04-16T07:20:30.314Z,76.93
2018-04-16T07:22:59.063Z,69.10
2018-04-16T07:25:25.851Z,71.43
2018-04-16T07:27:53.029Z,75.93
2018-04-16T07:30:21.279Z,83.47
2018-04-16T07:32:47.907Z,77.93
2018-04-16T07:35:15.209Z,83.53
2018-04-16T07:37:41.645Z,78.20
2018-04-16T07:40:10.394Z,76.73
2018-04-16T07:42:37.816Z,77.10
2018-04-16T07:45:05.490Z,82.33
2018-04-16T07:47:32.861Z,87.43
2018-04-16T07:49:59.601Z,79.20
2018-04-16T07:52:26.482Z,67.90
2018-04-16T07:54:52.962Z,73.47
2018-04-16T07:57:19.493Z,76.13
2018-04-16T07:59:45.898Z,78.30
2018-04-16T08:02:12.672Z,72.30
2018-04-16T08:04:40.814Z,69.87
2018-04-16T08:07:08.710Z,66.03
2018-04-16T08:09:35.160Z,71.83
2018-04-16T08:12:01.623Z,59.87
2018-04-16T08:14:28.058Z,68.47
2018-04-16T08:16:56.186Z,61.40
2018-04-16T08:19:22.601Z,60.37
2018-04-16T08:21:49.151Z,59.00
2018-04-16T08:24:15.807Z,64.37
2018-04-16T08:26:42.377Z,61.10
2018-04-16T08:29:08.755Z,60.03
2018-04-16T08:31:35.640Z,59.30
2018-04-16T08:34:02.949Z,57.63
2018-04-16T08:36:30.021Z,55.70
2018-04-16T08:38:56.911Z,58.83
2018-04-16T08:41:25.129Z,55.53
2018-04-16T08:43:52.328Z,52.37
2018-04-16T08:46:19.944Z,54.80
2018-04-16T08:48:46.387Z,52.50
2018-04-16T08:51:13.204Z,54.80
2018-04-16T08:53:40.313Z,49.77
2018-04-16T08:56:07.137Z,56.40
2018-04-16T08:58:34.579Z,60.00
2018-04-16T09:01:01.200Z,54.30
2018-04-16T09:03:27.732Z,65.30
2018-04-16T09:05:54.111Z,59.37
2018-04-16T09:08:20.649Z,73.47
2018-04-16T09:10:47.316Z,62.07
2018-04-16T09:13:15.138Z,51.73
2018-04-16T09:15:43.303Z,58.47
2018-04-16T09:18:10.042Z,56.50
2018-04-16T09:20:37.939Z,50.60
2018-04-16T09:23:06.754Z,52.43
2018-04-16T09:25:34.492Z,52.10
2018-04-16T09:28:02.074Z,49.33
2018-04-16T09:30:28.528Z,56.73
2018-04-16T09:32:55.694Z,50.10
2018-04-16T09:35:22.142Z,52.50
2018-04-16T09:37:50.481Z,51.07
2018-04-16T09:40:17.331Z,55.10
2018-04-16T09:42:43.824Z,56.17
2018-04-16T09:45:11.813Z,51.43
2018-04-16T09:47:38.240Z,48.57
2018-04-16T09:50:06.317Z,51.07
2018-04-16T09:52:33.512Z,52.70
2018-04-16T09:54:59.981Z,51.30
2018-04-16T09:57:26.371Z,50.23
2018-04-16T09:59:53.779Z,52.43
2018-04-16T10:02:24.231Z,46.83
2018-04-16T10:04:52.150Z,44.63
2018-04-16T10:07:18.862Z,52.03
2018-04-16T10:09:48.688Z,47.93
2018-04-16T10:12:16.290Z,46.73
2018-04-16T10:14:43.615Z,56.07
2018-04-16T10:17:10.312Z,55.20
2018-04-16T10:19:37.980Z,52.30
2018-04-16T10:22:06.150Z,56.80
2018-04-16T10:24:33.378Z,49.70
2018-04-16T10:26:59.828Z,47.63
2018-04-16T10:29:27.338Z,48.03
2018-04-16T10:31:53.912Z,49.00
2018-04-16T10:34:21.588Z,49.93
2018-04-16T10:36:49.536Z,43.47
2018-04-16T10:39:16.724Z,46.33
2018-04-16T10:41:45.169Z,38.53
2018-04-16T10:44:11.839Z,43.70
2018-04-16T10:46:39.396Z,40.23
2018-04-16T10:49:06.536Z,42.80
2018-04-16T10:51:33.002Z,38.03
2018-04-16T10:53:59.721Z,31.30
2018-04-16T10:56:29.134Z,36.40
2018-04-16T10:58:55.542Z,33.97
2018-04-16T11:01:22.127Z,32.20
2018-04-16T11:03:50.372Z,30.37
2018-04-16T11:06:20.991Z,34.50
2018-04-16T11:08:47.628Z,32.80
2018-04-16T11:11:15.584Z,31.17
2018-04-16T11:13:42.735Z,35.43
2018-04-16T11:16:11.469Z,35.83
2018-04-16T11:18:37.873Z,39.13
2018-04-16T11:21:04.485Z,33.30
2018-04-16T11:23:31.263Z,34.53
2018-04-16T11:25:57.886Z,29.83
2018-04-16T11:28:24.497Z,31.23
2018-04-16T11:30:52.448Z,30.17
2018-04-16T11:33:19.827Z,29.33
2018-04-16T11:35:46.528Z,33.80
2018-04-16T11:38:21.647Z,31.20
2018-04-16T11:40:48.442Z,35.50
2018-04-16T11:43:15.064Z,31.70
2018-04-16T11:45:42.883Z,33.33
2018-04-16T11:48:10.751Z,38.90
2018-04-16T11:50:37.434Z,37.67
2018-04-16T11:53:04.192Z,35.93
2018-04-16T11:55:32.606Z,34.30
2018-04-16T11:57:59.819Z,35.93
2018-04-16T12:00:26.391Z,30.77
2018-04-16T12:02:53.101Z,31.93
2018-04-16T12:05:19.820Z,33.67
2018-04-16T12:07:48.231Z,32.53
2018-04-16T12:10:14.891Z,36.40
2018-04-16T12:12:41.251Z,32.63
2018-04-16T12:15:09.402Z,35.90
2018-04-16T12:17:36.369Z,31.00
2018-04-16T12:20:03.978Z,28.67
2018-04-16T12:22:30.804Z,29.83
2018-04-16T12:24:58.305Z,31.23
2018-04-16T12:27:26.638Z,31.43
2018-04-16T12:29:53.249Z,28.77
2018-04-16T12:32:19.863Z,32.80
2018-04-16T12:34:46.940Z,31.73
2018-04-16T12:37:14.435Z,33.53
2018-04-16T12:39:40.953Z,35.40
2018-04-16T12:42:08.053Z,31.63
2018-04-16T12:44:36.171Z,30.07
2018-04-16T12:47:02.821Z,31.20
2018-04-16T12:49:30.404Z,39.77
2018-04-16T12:51:57.146Z,33.30
2018-04-16T12:54:25.293Z,36.77
2018-04-16T12:56:52.606Z,35.93
2018-04-16T12:59:20.001Z,39.23
2018-04-16T13:01:47.736Z,33.10
2018-04-16T13:04:15.742Z,32.23
2018-04-16T13:06:43.869Z,36.00
2018-04-16T13:09:11.050Z,34.43
2018-04-16T13:11:37.561Z,31.03
2018-04-16T13:14:04.368Z,40.53
2018-04-16T13:16:32.197Z,31.30
2018-04-16T13:18:58.803Z,32.57
2018-04-16T13:21:26.104Z,30.90
2018-04-16T13:23:53.655Z,33.40
2018-04-16T13:26:20.181Z,31.13
2018-04-16T13:28:48.192Z,33.73
2018-04-16T13:31:15.078Z,32.93
2018-04-16T13:33:41.679Z,27.77
2018-04-16T13:36:10.127Z,31.27
2018-04-16T13:38:37.027Z,32.03
2018-04-16T13:41:04.461Z,32.27
2018-04-16T13:43:34.066Z,29.60
2018-04-16T13:46:00.971Z,32.97
2018-04-16T13:48:27.860Z,30.57
2018-04-16T13:50:54.776Z,33.70
2018-04-16T13:53:21.773Z,31.40
2018-04-16T13:55:49.716Z,28.73
2018-04-16T13:58:16.484Z,24.90
2018-04-16T14:00:43.150Z,27.97
2018-04-16T14:03:10.325Z,27.87
2018-04-16T14:05:39.375Z,28.20
2018-04-16T14:08:08.308Z,27.70
2018-04-16T14:10:38.043Z,34.07
2018-04-16T14:13:06.102Z,34.53
2018-04-16T14:15:33.167Z,29.30
2018-04-16T14:18:01.249Z,29.33
2018-04-16T14:20:27.743Z,32.20
2018-04-16T14:22:56.078Z,32.30
2018-04-16T14:25:22.590Z,29.53
2018-04-16T14:27:51.031Z,30.87
2018-04-16T14:30:27.442Z,33.07
2018-04-16T14:32:54.506Z,33.37
2018-04-16T14:35:21.089Z,28.63
2018-04-16T14:37:47.942Z,31.97
2018-04-16T14:40:15.693Z,34.37
2018-04-16T14:42:42.540Z,34.37
2018-04-16T14:45:09.105Z,35.70
2018-04-16T14:47:36.020Z,31.57
2018-04-16T14:50:05.230Z,30.10
2018-04-16T14:52:33.616Z,34.93
2018-04-16T14:55:00.914Z,36.77
2018-04-16T14:57:28.559Z,36.50
2018-04-16T14:59:56.363Z,32.33
2018-04-16T15:02:24.995Z,34.07
2018-04-16T15:04:52.151Z,44.00
2018-04-16T15:07:23.025Z,33.83
2018-04-16T15:09:56.785Z,34.70
2018-04-16T15:12:25.874Z,32.23
2018-04-16T15:14:53.233Z,34.27
2018-04-16T15:17:20.292Z,32.87
2018-04-16T15:19:46.974Z,35.70
2018-04-16T15:22:17.456Z,35.93
2018-04-16T15:24:44.159Z,37.27
2018-04-16T15:27:11.929Z,35.90
2018-04-16T15:29:38.539Z,34.17
2018-04-16T15:32:17.043Z,34.87
2018-04-16T15:34:46.802Z,35.30
2018-04-16T15:37:14.836Z,34.10
2018-04-16T15:39:41.551Z,28.90
2018-04-16T15:42:07.940Z,33.33
2018-04-16T15:44:34.567Z,36.80
2018-04-16T15:47:01.040Z,34.70
2018-04-16T15:49:29.531Z,36.87
2018-04-16T15:51:56.141Z,34.57
2018-04-16T15:54:22.684Z,35.50
2018-04-16T15:56:49.485Z,36.70
2018-04-16T15:59:18.060Z,38.10
2018-04-16T16:01:44.852Z,34.80
2018-04-16T16:04:12.065Z,32.97
2018-04-16T16:06:39.933Z,30.80
2018-04-16T16:09:07.801Z,30.97
2018-04-16T16:11:36.394Z,31.83
2018-04-16T16:14:03.467Z,40.37
2018-04-16T16:16:30.506Z,36.37
2018-04-16T16:18:57.962Z,36.97
2018-04-16T16:21:24.917Z,33.50
2018-04-16T16:23:51.942Z,35.30
2018-04-16T16:26:18.672Z,38.63
2018-04-16T16:28:45.720Z,31.80
2018-04-16T16:31:13.091Z,32.53
2018-04-16T16:33:41.977Z,33.10
2018-04-16T16:36:08.751Z,34.27
2018-04-16T16:38:35.147Z,35.33
2018-04-16T16:41:01.793Z,34.53
2018-04-16T16:43:29.863Z,33.90
2018-04-16T16:45:56.303Z,36.17
2018-04-16T16:48:23.951Z,35.70
2018-04-16T16:50:51.287Z,37.63
2018-04-16T16:53:17.794Z,36.87
2018-04-16T16:55:45.023Z,33.40
2018-04-16T16:58:13.078Z,34.50
2018-04-16T17:00:39.583Z,35.03
2018-04-16T17:03:06.118Z,31.83
2018-04-16T17:05:33.393Z,35.97
2018-04-16T17:08:00.279Z,35.77
2018-04-16T17:10:26.748Z,37.57
2018-04-16T17:12:53.586Z,33.47
2018-04-16T17:15:22.073Z,36.67
2018-04-16T17:17:48.587Z,36.17
2018-04-16T17:20:17.834Z,37.97
2018-04-16T17:22:45.528Z,37.80
2018-04-16T17:25:12.297Z,40.03
2018-04-16T17:27:39.269Z,34.07
2018-04-16T17:30:06.390Z,38.90
2018-04-16T17:32:32.936Z,36.70
2018-04-16T17:34:59.870Z,44.57
2018-04-16T17:37:27.972Z,36.53
2018-04-16T17:39:56.583Z,36.20
2018-04-16T17:42:23.119Z,35.47
2018-04-16T17:44:52.209Z,33.10
2018-04-16T17:47:19.038Z,39.10
2018-04-16T17:49:48.118Z,43.53
2018-04-16T17:52:15.004Z,37.77
2018-04-16T17:54:42.632Z,35.90
2018-04-16T17:57:11.217Z,37.97
2018-04-16T17:59:38.151Z,41.50
2018-04-16T18:02:06.767Z,36.63
2018-04-16T18:04:35.411Z,40.13
2018-04-16T18:07:02.408Z,38.00
2018-04-16T18:09:29.630Z,34.30
2018-04-16T18:11:57.312Z,36.37
2018-04-16T18:14:25.898Z,41.87
2018-04-16T18:16:53.399Z,43.03
2018-04-16T18:19:20.023Z,40.47
2018-04-16T18:21:47.447Z,44.87
2018-04-16T18:24:14.542Z,43.67
2018-04-16T18:26:42.803Z,42.60
2018-04-16T18:29:12.379Z,43.27
2018-04-16T18:31:39.235Z,47.80
2018-04-16T18:34:06.263Z,50.73
2018-04-16T18:36:34.830Z,47.47
2018-04-16T18:39:04.026Z,39.00
2018-04-16T18:41:33.528Z,46.17
2018-04-16T18:44:01.842Z,52.60
2018-04-16T18:46:28.899Z,46.10
2018-04-16T18:48:57.769Z,52.47
2018-04-16T18:51:27.110Z,44.67
2018-04-16T18:53:55.500Z,54.03
2018-04-16T18:56:23.070Z,51.73
2018-04-16T18:58:50.136Z,56.50
2018-04-16T19:01:16.996Z,53.53
2018-04-16T19:03:43.579Z,49.60
2018-04-16T19:06:12.367Z,54.83
2018-04-16T19:08:39.254Z,49.37
2018-04-16T19:11:08.408Z,55.13
2018-04-16T19:13:36.261Z,55.43
2018-04-16T19:16:04.428Z,51.23
2018-04-16T19:21:12.342Z,52.57
2018-04-16T19:23:39.735Z,56.17
2018-04-16T19:26:06.561Z,50.43
2018-04-16T19:28:32.985Z,49.20
2018-04-16T19:30:59.752Z,54.70
2018-04-16T19:33:32.368Z,53.37
2018-04-16T19:35:58.951Z,57.90
2018-04-16T19:38:25.839Z,52.83
2018-04-16T19:40:53.325Z,65.10
2018-04-16T19:43:19.818Z,56.80
2018-04-16T19:45:47.327Z,56.80
2018-04-16T19:48:15.973Z,66.57
2018-04-16T19:50:45.947Z,60.77
2018-04-16T19:53:16.131Z,60.43
2018-04-16T19:55:48.977Z,66.23
2018-04-16T19:58:22.875Z,59.57
2018-04-16T20:00:51.778Z,69.97
2018-04-16T20:03:30.298Z,72.17
2018-04-16T20:05:57.601Z,73.47
2018-04-16T20:08:24.380Z,76.03
2018-04-16T20:10:53.267Z,71.63
2018-04-16T20:13:21.971Z,72.07
2018-04-16T20:15:49.386Z,67.97
2018-04-16T20:18:17.516Z,67.63
2018-04-16T20:20:44.201Z,70.40
2018-04-16T20:23:19.995Z,70.10
2018-04-16T20:28:41.179Z,67.23
2018-04-16T20:31:08.025Z,83.17
2018-04-16T20:33:34.904Z,77.93
2018-04-16T20:36:01.727Z,76.83
2018-04-16T20:38:30.654Z,80.00
2018-04-16T20:40:57.125Z,69.73
2018-04-16T20:43:24.547Z,69.90
2018-04-16T20:45:51.923Z,76.73
2018-04-16T20:48:18.421Z,75.03
2018-04-16T20:50:46.344Z,64.77
2018-04-16T20:53:14.084Z,66.23
2018-04-16T20:55:42.116Z,62.83
2018-04-16T20:58:09.440Z,58.47
2018-04-16T21:00:36.188Z,59.03
2018-04-16T21:03:03.737Z,64.10
2018-04-16T21:05:31.941Z,62.80
2018-04-16T21:07:58.635Z,62.07
2018-04-16T21:10:25.384Z,60.23
2018-04-16T21:12:52.086Z,57.37
2018-04-16T21:15:19.417Z,64.37
2018-04-16T21:17:45.803Z,63.23
2018-04-16T21:20:12.481Z,71.43
2018-04-16T21:22:38.857Z,66.70
2018-04-16T21:25:05.547Z,65.20
2018-04-16T21:27:32.015Z,64.23
2018-04-16T21:29:58.439Z,62.37
2018-04-16T21:32:24.981Z,67.30
2018-04-16T21:34:51.876Z,60.50
2018-04-16T21:37:18.297Z,65.77
2018-04-16T21:39:44.890Z,55.97
2018-04-16T21:42:11.457Z,65.60
2018-04-16T21:44:38.043Z,60.40
2018-04-16T21:47:05.423Z,60.50
2018-04-16T21:49:34.783Z,54.27
2018-04-16T21:52:09.760Z,55.27
2018-04-16T21:54:37.056Z,54.17
2018-04-16T21:57:03.843Z,61.20
2018-04-16T21:59:31.448Z,59.53
2018-04-16T22:01:57.867Z,79.80
2018-04-16T22:04:24.709Z,58.37
2018-04-16T22:06:51.272Z,53.37
2018-04-16T22:09:17.691Z,67.90
2018-04-16T22:11:44.147Z,65.77
2018-04-16T22:14:11.437Z,61.50
2018-04-16T22:16:37.989Z,73.20
2018-04-16T22:19:05.700Z,67.23
2018-04-16T22:21:33.440Z,63.37
2018-04-16T22:24:01.476Z,75.40
2018-04-16T22:26:28.384Z,71.93
2018-04-16T22:28:55.725Z,65.50
2018-04-16T22:31:23.524Z,67.70
2018-04-16T22:33:50.900Z,59.17
2018-04-16T22:36:18.793Z,65.77
2018-04-16T22:38:45.327Z,61.80
2018-04-16T22:41:17.715Z,61.93
2018-04-16T22:43:44.339Z,64.03
2018-04-16T22:46:11.428Z,73.00
2018-04-16T22:48:39.033Z,63.30
2018-04-16T22:51:07.913Z,57.37
2018-04-16T22:53:34.337Z,62.83
2018-04-16T22:56:01.604Z,59.27
2018-04-16T22:58:34.051Z,66.40
2018-04-16T23:01:01.533Z,60.53
2018-04-16T23:03:29.288Z,66.67
2018-04-16T23:05:55.722Z,62.20
2018-04-16T23:08:22.401Z,64.50
2018-04-16T23:10:51.061Z,70.00
2018-04-16T23:13:18.535Z,63.83
2018-04-16T23:15:45.093Z,62.93
2018-04-16T23:18:14.260Z,60.97
2018-04-16T23:20:41.010Z,63.40
2018-04-16T23:23:07.466Z,58.23
2018-04-16T23:25:35.615Z,64.37
2018-04-16T23:28:02.470Z,59.87
2018-04-16T23:30:29.332Z,57.43
2018-04-16T23:32:57.606Z,61.07
2018-04-16T23:35:26.313Z,66.50
2018-04-16T23:43:47.962Z,64.60
2018-04-16T23:46:15.461Z,62.63
2018-04-16T23:48:42.218Z,65.43
2018-04-16T23:51:08.969Z,64.10
2018-04-16T23:53:36.199Z,72.70
2018-04-16T23:56:02.933Z,71.50
2018-04-16T23:58:29.404Z,67.63
